Time;durP1;ratioP1;P1;durP2;ratioP2;P2;SDS_P1;SDS_P2;PMS_P1;PMS_P2;Temp;Humidity;BMP_temperature;BMP_pressure;BME280_temperature;BME280_humidity;BME280_pressure;Samples;Min_cycle;Max_cycle;Signal;HPM_P1;HPM_P2
2022/03/28 00:01:35;;;;;;;41.47;12.95;;;6.40;99.90;;;;;;5054961;28;20044;-45
2022/03/28 00:04:01;;;;;;;121.28;13.25;;;6.40;99.90;;;;;;5056066;28;20503;-45
2022/03/28 00:06:27;;;;;;;41.15;11.45;;;6.30;99.90;;;;;;5043467;28;20048;-44
2022/03/28 00:08:53;;;;;;;53.80;12.85;;;6.30;99.90;;;;;;5054306;28;20411;-45
2022/03/28 00:11:19;;;;;;;36.85;11.32;;;6.30;99.90;;;;;;5062545;28;20441;-44
2022/03/28 00:13:45;;;;;;;68.82;13.13;;;6.30;99.90;;;;;;5061915;28;20094;-44
2022/03/28 00:16:12;;;;;;;65.18;12.77;;;6.30;99.90;;;;;;5061472;28;20048;-44
2022/03/28 00:18:38;;;;;;;66.53;13.82;;;6.30;99.90;;;;;;5018510;28;20049;-42
2022/03/28 00:21:04;;;;;;;72.45;14.38;;;6.20;99.90;;;;;;5063851;28;20040;-44
2022/03/28 00:23:31;;;;;;;87.50;13.90;;;6.10;99.90;;;;;;5062537;28;20973;-44
2022/03/28 00:25:57;;;;;;;154.35;16.77;;;6.10;99.90;;;;;;5061537;28;20051;-44
2022/03/28 00:28:23;;;;;;;111.53;15.40;;;6.20;99.90;;;;;;5044973;28;20410;-46
2022/03/28 00:30:50;;;;;;;51.60;14.00;;;6.20;99.90;;;;;;5063428;28;20051;-45
2022/03/28 00:33:16;;;;;;;28.05;13.20;;;6.10;99.90;;;;;;5063526;28;20110;-45
2022/03/28 00:35:41;;;;;;;77.28;14.57;;;6.20;99.90;;;;;;5055629;28;20056;-44
2022/03/28 00:38:09;;;;;;;42.53;14.07;;;6.10;99.90;;;;;;5054163;28;20084;-45
2022/03/28 00:40:35;;;;;;;59.53;14.13;;;6.10;99.90;;;;;;5054724;28;20147;-45
2022/03/28 00:43:08;;;;;;;50.55;14.85;;;6.10;99.90;;;;;;5058580;28;20055;-44
2022/03/28 00:45:35;;;;;;;63.10;14.68;;;6.10;99.90;;;;;;5046416;28;20064;-51
2022/03/28 00:48:02;;;;;;;38.85;15.45;;;6.10;99.90;;;;;;5062721;28;20051;-44
2022/03/28 00:50:29;;;;;;;32.42;15.25;;;6.10;99.90;;;;;;5040757;28;20057;-46
2022/03/28 00:52:55;;;;;;;40.10;15.70;;;6.10;99.90;;;;;;5039230;28;20133;-43
2022/03/28 00:55:21;;;;;;;73.47;15.57;;;6.10;99.90;;;;;;5036697;28;20529;-48
2022/03/28 00:57:47;;;;;;;27.35;14.48;;;6.10;99.90;;;;;;5061679;28;20044;-45
2022/03/28 01:00:13;;;;;;;32.30;15.73;;;6.10;99.90;;;;;;5061764;28;20048;-44
2022/03/28 01:02:39;;;;;;;22.63;15.23;;;6.10;99.90;;;;;;5062378;28;20044;-44
2022/03/28 01:05:06;;;;;;;70.80;15.00;;;6.10;99.90;;;;;;5056349;28;20059;-46
2022/03/28 01:07:32;;;;;;;152.68;16.70;;;6.20;99.90;;;;;;5043315;28;20065;-44
2022/03/28 01:14:03;;;;;;;113.03;15.27;;;6.20;99.90;;;;;;5076946;28;20050;-45
2022/03/28 01:18:05;;;;;;;91.13;14.40;;;6.10;99.90;;;;;;5074964;28;20494;-44
2022/03/28 01:19:23;;;;;;;41.35;13.25;;;6.10;99.90;;;;;;5076636;28;20078;-49
2022/03/28 01:21:52;;;;;;;45.40;12.95;;;6.10;99.90;;;;;;5081353;28;20052;-45
2022/03/28 01:24:18;;;;;;;64.07;13.63;;;6.00;99.90;;;;;;5074095;28;20382;-44
2022/03/28 01:26:46;;;;;;;34.33;12.50;;;6.10;99.90;;;;;;5063774;28;20062;-46
2022/03/28 01:29:13;;;;;;;63.05;13.88;;;6.10;99.90;;;;;;5073752;28;20484;-44
2022/03/28 01:31:39;;;;;;;16.33;11.10;;;6.10;99.90;;;;;;5061104;28;20505;-43
2022/03/28 01:34:06;;;;;;;23.25;11.77;;;6.10;99.90;;;;;;5082553;28;20052;-44
2022/03/28 01:36:32;;;;;;;15.57;11.60;;;6.10;99.90;;;;;;5082653;28;20161;-44
2022/03/28 01:38:57;;;;;;;15.75;10.63;;;6.10;99.90;;;;;;5082160;28;20465;-42
2022/03/28 01:41:23;;;;;;;18.17;11.25;;;6.20;99.90;;;;;;5082995;28;20039;-44
2022/03/28 01:43:49;;;;;;;22.73;11.07;;;6.10;99.90;;;;;;5081708;28;20087;-45
2022/03/28 01:46:16;;;;;;;12.77;10.48;;;6.20;99.90;;;;;;5062913;28;20097;-44
2022/03/28 01:48:43;;;;;;;16.40;11.00;;;6.20;99.90;;;;;;5064295;28;20056;-43
2022/03/28 01:51:09;;;;;;;40.88;11.25;;;6.20;99.90;;;;;;5082350;28;20044;-43
2022/03/28 01:53:34;;;;;;;14.68;10.68;;;6.20;99.90;;;;;;5074599;28;20078;-45
2022/03/28 01:56:00;;;;;;;22.10;10.07;;;6.20;99.90;;;;;;5085941;28;20044;-45
2022/03/28 01:58:26;;;;;;;10.80;9.50;;;6.10;99.90;;;;;;5057048;28;20872;-47
2022/03/28 02:00:51;;;;;;;21.75;10.32;;;6.20;99.90;;;;;;5076291;28;20052;-44
2022/03/28 02:03:22;;;;;;;12.75;10.35;;;6.10;99.90;;;;;;5080523;28;20385;-45
2022/03/28 02:05:48;;;;;;;11.95;10.02;;;6.10;99.90;;;;;;5081597;28;20052;-47
2022/03/28 02:08:13;;;;;;;12.60;10.55;;;6.10;99.90;;;;;;5073485;28;20268;-45
2022/03/28 02:10:39;;;;;;;12.20;10.27;;;6.10;99.90;;;;;;5081542;28;20035;-45
2022/03/28 02:13:05;;;;;;;27.08;11.27;;;6.20;99.90;;;;;;5078906;28;20440;-45
2022/03/28 02:15:31;;;;;;;46.53;11.30;;;6.10;99.90;;;;;;5080673;28;20565;-45
2022/03/28 02:17:58;;;;;;;17.25;10.52;;;6.10;99.90;;;;;;5079169;28;20056;-45
2022/03/28 02:20:24;;;;;;;23.80;11.05;;;6.20;99.90;;;;;;5065863;28;20052;-45
2022/03/28 02:22:50;;;;;;;21.55;10.05;;;6.10;99.90;;;;;;5079290;28;20497;-46
2022/03/28 02:25:16;;;;;;;43.97;11.98;;;6.00;99.90;;;;;;5075503;28;20055;-44
2022/03/28 02:27:44;;;;;;;38.65;11.65;;;6.00;99.90;;;;;;5072410;28;20052;-44
2022/03/28 02:30:11;;;;;;;31.08;11.75;;;6.00;99.90;;;;;;5081402;28;20054;-44
2022/03/28 02:32:38;;;;;;;24.58;11.05;;;6.00;99.90;;;;;;5073342;28;20113;-45
2022/03/28 02:35:05;;;;;;;54.58;12.35;;;6.00;99.90;;;;;;5079784;28;20043;-46
2022/03/28 02:37:31;;;;;;;27.63;10.48;;;6.00;99.90;;;;;;5080188;28;20052;-45
2022/03/28 02:39:56;;;;;;;33.00;10.60;;;5.90;99.90;;;;;;5073419;28;20051;-48
2022/03/28 02:42:22;;;;;;;15.85;10.43;;;5.90;99.90;;;;;;5076461;28;20052;-43
2022/03/28 02:44:52;;;;;;;14.77;10.38;;;5.90;99.90;;;;;;5074925;28;20036;-44
2022/03/28 02:47:18;;;;;;;24.17;12.38;;;5.80;99.90;;;;;;5077042;28;20044;-44
2022/03/28 02:49:44;;;;;;;25.00;12.15;;;5.90;99.90;;;;;;5077157;28;20551;-47
2022/03/28 02:52:10;;;;;;;16.85;10.55;;;5.90;99.90;;;;;;5075725;28;20119;-46
2022/03/28 02:54:36;;;;;;;29.98;10.82;;;6.00;99.90;;;;;;5072373;28;20048;-45
2022/03/28 02:57:02;;;;;;;17.02;11.23;;;6.00;99.90;;;;;;5060650;28;20485;-45
2022/03/28 02:59:27;;;;;;;21.92;11.40;;;5.90;99.90;;;;;;5080910;28;20052;-44
2022/03/28 03:01:54;;;;;;;29.50;11.85;;;5.90;99.90;;;;;;5081864;28;20046;-45
2022/03/28 03:04:20;;;;;;;24.23;11.45;;;5.90;99.90;;;;;;5061220;28;20084;-44
2022/03/28 03:06:46;;;;;;;17.83;11.88;;;5.90;99.90;;;;;;5080116;28;20471;-45
2022/03/28 03:09:12;;;;;;;25.23;11.43;;;5.90;99.90;;;;;;5085133;28;20055;-46
2022/03/28 03:11:40;;;;;;;28.50;11.80;;;5.80;99.90;;;;;;5072479;28;20605;-51
2022/03/28 03:14:06;;;;;;;30.23;11.43;;;5.80;99.90;;;;;;5084195;28;20413;-46
2022/03/28 03:16:32;;;;;;;22.95;12.35;;;5.90;99.90;;;;;;5079673;28;20163;-44
2022/03/28 03:18:58;;;;;;;15.20;10.23;;;5.80;99.90;;;;;;5071191;28;20578;-45
2022/03/28 03:21:24;;;;;;;14.27;10.77;;;5.90;99.90;;;;;;5058563;28;20259;-44
2022/03/28 03:23:50;;;;;;;20.92;11.55;;;5.80;99.90;;;;;;5072850;28;20052;-45
2022/03/28 03:26:16;;;;;;;22.27;12.32;;;5.80;99.90;;;;;;5077583;28;20425;-44
2022/03/28 03:28:45;;;;;;;15.15;11.45;;;5.80;99.90;;;;;;5080113;28;20153;-45
2022/03/28 03:31:10;;;;;;;23.95;12.50;;;5.80;99.90;;;;;;5080233;28;20044;-45
2022/03/28 03:33:36;;;;;;;23.27;12.32;;;5.70;99.90;;;;;;5079833;28;20110;-46
2022/03/28 03:36:02;;;;;;;38.22;13.15;;;5.70;99.90;;;;;;5079780;28;20131;-45
2022/03/28 03:38:28;;;;;;;32.80;12.35;;;5.70;99.90;;;;;;5078919;28;20059;-44
2022/03/28 03:40:54;;;;;;;20.55;11.55;;;5.70;99.90;;;;;;5077768;28;20035;-46
2022/03/28 03:43:21;;;;;;;18.45;12.40;;;5.70;99.90;;;;;;5061923;28;20044;-45
2022/03/28 03:45:47;;;;;;;28.83;12.90;;;5.70;99.90;;;;;;5074948;28;20457;-43
2022/03/28 03:48:13;;;;;;;25.15;13.05;;;5.70;99.90;;;;;;5076794;28;20086;-44
2022/03/28 03:50:41;;;;;;;21.02;11.95;;;5.70;99.90;;;;;;5077506;28;20052;-42
2022/03/28 03:53:08;;;;;;;48.65;13.73;;;5.70;99.90;;;;;;5079884;28;20056;-44
2022/03/28 03:55:33;;;;;;;22.25;12.40;;;5.80;99.90;;;;;;5084563;28;20044;-44
2022/03/28 03:57:59;;;;;;;14.13;11.30;;;5.80;99.90;;;;;;5081940;28;20085;-45
2022/03/28 04:00:31;;;;;;;20.27;12.82;;;5.80;99.90;;;;;;5055515;28;20066;-47
2022/03/28 04:02:57;;;;;;;24.38;13.45;;;5.80;99.90;;;;;;5078255;28;20490;-45
2022/03/28 04:05:23;;;;;;;19.20;13.70;;;5.80;99.90;;;;;;5072761;28;20486;-43
2022/03/28 04:07:48;;;;;;;22.15;12.32;;;5.80;99.90;;;;;;5077485;28;20047;-43
2022/03/28 04:10:14;;;;;;;34.40;12.15;;;5.80;99.90;;;;;;5078428;28;20079;-45
2022/03/28 04:12:40;;;;;;;17.63;12.50;;;5.80;99.90;;;;;;5080482;28;20047;-45
2022/03/28 04:15:07;;;;;;;19.48;12.57;;;5.70;99.90;;;;;;5041077;28;20533;-45
2022/03/28 04:17:43;;;;;;;14.20;11.85;;;5.70;99.90;;;;;;5060068;28;20062;-45
2022/03/28 04:20:13;;;;;;;12.82;10.57;;;5.60;99.90;;;;;;5054819;28;20037;-44
2022/03/28 04:22:40;;;;;;;14.75;11.25;;;5.70;99.90;;;;;;5062539;28;20049;-43
2022/03/28 04:25:12;;;;;;;12.50;11.00;;;5.70;99.90;;;;;;5039069;28;20399;-44
2022/03/28 04:27:40;;;;;;;15.27;11.25;;;5.70;99.90;;;;;;5059360;28;20550;-44
2022/03/28 04:30:08;;;;;;;16.98;13.27;;;5.70;99.90;;;;;;5062374;28;20036;-43
2022/03/28 04:32:34;;;;;;;15.57;11.68;;;5.70;99.90;;;;;;5062272;28;20102;-46
2022/03/28 04:35:00;;;;;;;38.47;13.23;;;5.60;99.90;;;;;;5061901;28;20556;-46
2022/03/28 04:37:31;;;;;;;24.90;13.68;;;5.70;99.90;;;;;;5062077;28;20080;-44
2022/03/28 04:39:57;;;;;;;21.90;13.43;;;5.60;99.90;;;;;;5060574;28;20051;-44
2022/03/28 04:42:25;;;;;;;20.13;13.27;;;5.50;99.90;;;;;;5068666;28;20048;-44
2022/03/28 04:44:51;;;;;;;15.90;12.63;;;5.50;99.90;;;;;;5061526;28;20483;-43
2022/03/28 04:47:17;;;;;;;17.13;12.82;;;5.50;99.90;;;;;;5062410;28;20044;-45
2022/03/28 04:49:43;;;;;;;17.00;12.98;;;5.50;99.90;;;;;;5062473;28;20052;-45
2022/03/28 04:52:09;;;;;;;19.75;13.20;;;5.50;99.90;;;;;;5061862;28;20055;-44
2022/03/28 04:54:36;;;;;;;15.75;13.55;;;5.60;99.90;;;;;;5044317;28;20044;-43
2022/03/28 04:57:05;;;;;;;24.77;14.00;;;5.60;99.90;;;;;;5061667;28;20053;-44
2022/03/28 04:59:32;;;;;;;18.63;13.55;;;5.60;99.90;;;;;;5062150;28;20055;-43
2022/03/28 05:02:01;;;;;;;17.35;13.45;;;5.60;99.90;;;;;;5043139;28;20048;-44
2022/03/28 05:04:27;;;;;;;17.92;14.00;;;5.60;99.90;;;;;;5061782;28;20052;-44
2022/03/28 05:06:53;;;;;;;17.17;14.07;;;5.60;99.90;;;;;;5043288;28;20056;-45
2022/03/28 05:09:18;;;;;;;27.63;14.07;;;5.60;99.90;;;;;;5061595;28;20071;-45
2022/03/28 05:11:44;;;;;;;16.85;13.95;;;5.60;99.90;;;;;;5062104;28;20514;-46
2022/03/28 05:14:11;;;;;;;17.95;13.77;;;5.50;99.90;;;;;;5043092;28;20064;-44
2022/03/28 05:16:36;;;;;;;21.80;14.68;;;5.50;99.90;;;;;;5052572;28;20424;-45
2022/03/28 05:19:03;;;;;;;18.40;15.50;;;5.50;99.90;;;;;;5060803;28;21552;-44
2022/03/28 05:21:29;;;;;;;21.60;15.32;;;5.50;99.90;;;;;;5055137;28;20091;-45
2022/03/28 05:23:54;;;;;;;27.85;14.93;;;5.60;99.90;;;;;;5057095;28;20048;-44
2022/03/28 05:26:21;;;;;;;16.98;14.82;;;5.50;99.90;;;;;;5057355;28;20114;-44
2022/03/28 05:28:47;;;;;;;19.58;15.50;;;5.50;99.90;;;;;;5062069;28;20082;-45
2022/03/28 05:31:13;;;;;;;26.58;16.05;;;5.60;99.90;;;;;;5028535;28;20088;-43
2022/03/28 05:33:38;;;;;;;17.45;15.40;;;5.60;99.90;;;;;;5058888;28;20045;-43
2022/03/28 05:36:12;;;;;;;22.63;16.35;;;5.60;99.90;;;;;;5049782;28;20049;-44
2022/03/28 05:38:37;;;;;;;;;;;5.60;99.90;;;;;;5052813;28;20044;-46
2022/03/28 05:41:07;;;;;;;17.98;15.02;;;5.50;99.90;;;;;;5033861;28;19924;-45
2022/03/28 05:43:38;;;;;;;37.30;16.48;;;5.60;99.90;;;;;;5054627;28;20131;-45
2022/03/28 05:46:04;;;;;;;19.02;15.38;;;5.60;99.90;;;;;;5060948;28;20048;-46
2022/03/28 05:48:30;;;;;;;17.08;14.88;;;5.50;99.90;;;;;;5060720;28;20048;-45
2022/03/28 05:51:08;;;;;;;18.65;15.55;;;5.60;99.90;;;;;;5053330;28;20363;-46
2022/03/28 05:53:34;;;;;;;16.30;13.98;;;5.60;99.90;;;;;;5051892;28;20048;-44
2022/03/28 05:55:59;;;;;;;17.80;14.23;;;5.60;99.90;;;;;;5055113;28;20416;-45
2022/03/28 05:58:25;;;;;;;23.17;15.20;;;5.50;99.90;;;;;;5059093;28;20040;-44
2022/03/28 06:00:51;;;;;;;16.50;14.45;;;5.60;99.90;;;;;;5047376;28;20557;-44
2022/03/28 06:03:18;;;;;;;18.52;15.80;;;5.60;99.90;;;;;;5052208;28;20040;-44
2022/03/28 06:05:44;;;;;;;23.30;19.10;;;5.60;99.90;;;;;;5053755;28;20182;-45
2022/03/28 06:08:10;;;;;;;22.98;18.13;;;5.60;99.90;;;;;;5053148;28;20044;-44
2022/03/28 06:10:36;;;;;;;22.98;17.67;;;5.70;99.90;;;;;;5046134;28;20044;-47
2022/03/28 06:13:03;;;;;;;23.60;17.05;;;5.70;99.90;;;;;;5058617;28;20048;-45
2022/03/28 06:15:36;;;;;;;22.52;15.73;;;5.70;99.90;;;;;;5077383;28;20100;-44
2022/03/28 06:18:04;;;;;;;20.73;15.25;;;5.70;99.90;;;;;;5080180;28;20426;-47
2022/03/28 06:20:30;;;;;;;19.45;15.05;;;5.70;99.90;;;;;;5072613;28;20063;-45
2022/03/28 06:22:56;;;;;;;18.30;14.07;;;5.70;99.90;;;;;;5078729;28;20052;-42
2022/03/28 06:25:22;;;;;;;20.65;14.50;;;5.70;99.90;;;;;;5078720;28;20044;-45
2022/03/28 06:27:49;;;;;;;21.45;14.68;;;5.70;99.90;;;;;;5071839;28;20043;-45
2022/03/28 06:30:15;;;;;;;20.25;15.75;;;5.70;99.90;;;;;;5080764;28;20429;-45
2022/03/28 06:32:41;;;;;;;16.40;13.60;;;5.70;99.90;;;;;;5079790;28;20075;-44
2022/03/28 06:35:08;;;;;;;16.58;13.68;;;5.60;99.90;;;;;;5059700;28;20190;-46
2022/03/28 06:37:35;;;;;;;17.25;13.10;;;5.70;99.90;;;;;;5079515;28;20066;-45
2022/03/28 06:40:03;;;;;;;16.75;14.00;;;5.60;99.90;;;;;;5076397;28;20048;-44
2022/03/28 06:42:31;;;;;;;16.95;13.63;;;5.60;99.90;;;;;;5061381;28;20055;-47
2022/03/28 06:45:01;;;;;;;15.30;12.57;;;5.60;99.90;;;;;;5075405;28;20419;-47
2022/03/28 06:47:28;;;;;;;12.77;10.90;;;5.60;99.90;;;;;;5084065;28;20056;-44
2022/03/28 06:49:54;;;;;;;13.43;11.90;;;5.60;99.90;;;;;;5080970;28;20091;-45
2022/03/28 06:52:19;;;;;;;17.33;11.60;;;5.60;99.90;;;;;;5073287;28;20146;-42
2022/03/28 06:54:45;;;;;;;15.75;12.13;;;5.70;99.90;;;;;;5072594;28;20048;-45
2022/03/28 06:57:12;;;;;;;15.00;11.63;;;5.70;99.90;;;;;;5078030;28;20059;-44
2022/03/28 06:59:38;;;;;;;16.25;12.77;;;5.70;99.90;;;;;;5079984;28;20131;-44
2022/03/28 07:02:13;;;;;;;20.33;12.77;;;5.60;99.90;;;;;;5076185;28;20074;-45
2022/03/28 07:04:40;;;;;;;17.52;12.90;;;5.70;99.90;;;;;;5053193;28;20102;-42
2022/03/28 07:07:05;;;;;;;14.25;12.45;;;5.70;99.90;;;;;;5079978;28;20056;-45
2022/03/28 07:09:31;;;;;;;19.42;14.23;;;5.70;99.90;;;;;;5079413;28;20401;-45
2022/03/28 07:11:59;;;;;;;19.92;13.70;;;5.60;99.90;;;;;;5072568;28;20074;-44
2022/03/28 07:14:24;;;;;;;18.90;13.65;;;5.70;99.90;;;;;;5076684;28;20134;-43
2022/03/28 07:16:51;;;;;;;17.02;13.68;;;5.80;99.90;;;;;;5078371;28;20048;-44
2022/03/28 07:19:17;;;;;;;18.23;13.25;;;5.80;99.90;;;;;;5079117;28;20499;-44
2022/03/28 07:21:42;;;;;;;20.25;13.20;;;5.90;99.90;;;;;;5065962;28;20047;-44
2022/03/28 07:24:08;;;;;;;18.98;13.60;;;5.90;99.90;;;;;;5069750;28;20047;-44
2022/03/28 07:26:34;;;;;;;23.20;14.82;;;6.00;99.90;;;;;;5071392;28;20047;-44
2022/03/28 07:29:02;;;;;;;17.40;12.18;;;6.00;99.90;;;;;;5069106;28;20055;-47
2022/03/28 07:31:29;;;;;;;17.52;13.05;;;6.00;99.90;;;;;;5071515;28;20113;-43
2022/03/28 07:34:29;;;;;;;16.27;12.90;;;6.10;99.90;;;;;;5077573;28;20048;-45
2022/03/28 07:36:43;;;;;;;18.23;13.20;;;6.10;99.90;;;;;;5071471;28;20470;-43
2022/03/28 07:39:09;;;;;;;20.02;12.70;;;6.20;99.90;;;;;;5071441;28;20398;-45
2022/03/28 07:41:35;;;;;;;14.80;12.07;;;6.20;99.90;;;;;;5073954;28;20134;-45
2022/03/28 07:44:01;;;;;;;18.15;11.30;;;6.30;99.90;;;;;;5069809;28;20163;-45
2022/03/28 07:46:26;;;;;;;13.20;11.10;;;6.20;99.90;;;;;;5070797;28;20117;-45
2022/03/28 07:48:55;;;;;;;16.05;10.02;;;6.20;99.90;;;;;;5069213;28;20465;-45
2022/03/28 07:51:20;;;;;;;12.77;10.10;;;6.20;99.90;;;;;;5071629;28;20055;-45
2022/03/28 07:53:46;;;;;;;14.75;10.23;;;6.20;99.90;;;;;;5052153;28;20047;-45
2022/03/28 07:56:12;;;;;;;13.00;9.77;;;6.20;99.90;;;;;;5073263;28;20096;-46
2022/03/28 07:58:37;;;;;;;14.18;9.80;;;6.20;99.90;;;;;;5072313;28;20475;-45
2022/03/28 08:01:03;;;;;;;11.88;9.15;;;6.30;99.90;;;;;;5056901;28;20120;-45
2022/03/28 08:03:29;;;;;;;10.85;7.90;;;6.30;99.90;;;;;;5074404;28;20881;-49
2022/03/28 08:05:54;;;;;;;10.05;8.27;;;6.40;99.90;;;;;;5075772;28;20488;-47
2022/03/28 08:08:20;;;;;;;11.32;8.13;;;6.50;99.90;;;;;;5073061;28;20439;-46
2022/03/28 08:10:46;;;;;;;11.35;7.32;;;6.50;99.90;;;;;;5074166;28;20040;-44
2022/03/28 08:13:12;;;;;;;10.43;8.27;;;6.50;99.90;;;;;;5074471;28;20074;-45
2022/03/28 08:15:38;;;;;;;12.98;7.55;;;6.60;99.90;;;;;;5073847;28;20496;-43
2022/03/28 08:18:04;;;;;;;9.85;7.20;;;6.60;99.90;;;;;;5053558;28;20051;-43
2022/03/28 08:20:30;;;;;;;9.15;6.50;;;6.60;99.90;;;;;;5075599;28;20506;-45
2022/03/28 08:22:59;;;;;;;9.50;7.18;;;6.60;99.90;;;;;;5071232;28;20108;-44
2022/03/28 08:25:25;;;;;;;9.07;6.85;;;6.70;99.90;;;;;;5081179;28;20161;-42
2022/03/28 08:27:51;;;;;;;8.35;6.15;;;6.80;99.90;;;;;;5072946;28;20134;-46
2022/03/28 08:30:18;;;;;;;7.90;5.93;;;6.90;99.90;;;;;;5081047;28;20604;-44
2022/03/28 08:32:46;;;;;;;8.70;6.55;;;7.00;99.90;;;;;;5080980;28;20044;-46
2022/03/28 08:35:12;;;;;;;13.52;7.65;;;7.00;99.90;;;;;;5081415;28;20059;-44
2022/03/28 08:37:38;;;;;;;8.57;6.28;;;6.90;99.90;;;;;;5081878;28;20555;-45
2022/03/28 08:40:05;;;;;;;7.93;5.47;;;6.80;99.90;;;;;;5077026;28;20036;-45
2022/03/28 08:42:33;;;;;;;8.25;6.00;;;6.90;99.90;;;;;;5056630;28;20090;-44
2022/03/28 08:45:04;;;;;;;8.55;6.13;;;7.00;99.90;;;;;;5079679;28;20159;-43
2022/03/28 08:47:31;;;;;;;7.32;5.75;;;7.10;99.90;;;;;;5058472;28;20044;-44
2022/03/28 08:49:56;;;;;;;5.95;4.95;;;7.20;99.90;;;;;;5051552;28;20067;-44
2022/03/28 08:52:24;;;;;;;6.63;5.18;;;7.20;99.90;;;;;;5081856;28;20086;-45
2022/03/28 08:54:50;;;;;;;8.80;6.43;;;7.20;99.90;;;;;;5082029;28;20129;-44
2022/03/28 08:57:16;;;;;;;7.35;6.00;;;7.20;99.90;;;;;;5080676;28;20048;-44
2022/03/28 08:59:42;;;;;;;7.82;5.50;;;7.20;99.90;;;;;;5079910;28;20052;-44
2022/03/28 09:02:47;;;;;;;8.15;5.82;;;7.20;99.90;;;;;;5076964;28;20493;-44
2022/03/28 09:05:18;;;;;;;7.28;5.05;;;7.20;99.90;;;;;;5066346;28;20044;-46
2022/03/28 09:07:44;;;;;;;8.65;5.20;;;7.30;99.90;;;;;;5095246;28;20460;-45
2022/03/28 09:10:17;;;;;;;6.30;5.05;;;7.30;99.90;;;;;;5075114;28;20040;-45
2022/03/28 09:13:09;;;;;;;6.78;4.60;;;7.40;99.90;;;;;;5066253;28;20048;-46
2022/03/28 09:16:14;;;;;;;9.07;5.70;;;7.50;99.90;;;;;;5061920;28;20721;-48
2022/03/28 09:18:40;;;;;;;8.98;6.60;;;7.40;99.90;;;;;;5069899;28;20048;-46
2022/03/28 09:21:10;;;;;;;7.93;6.13;;;7.40;99.90;;;;;;5074491;28;20456;-45
2022/03/28 09:23:49;;;;;;;7.57;5.50;;;7.60;99.90;;;;;;5069560;28;20062;-45
2022/03/28 09:26:23;;;;;;;9.10;6.15;;;7.70;99.90;;;;;;5063804;28;20044;-45
2022/03/28 09:28:50;;;;;;;8.50;6.60;;;7.80;99.90;;;;;;5069944;28;20045;-46
2022/03/28 09:31:19;;;;;;;8.65;5.88;;;7.90;99.90;;;;;;5049745;28;20051;-44
2022/03/28 09:34:17;;;;;;;9.20;7.20;;;8.00;99.90;;;;;;5064292;28;20123;-46
2022/03/28 09:36:50;;;;;;;7.32;6.22;;;8.10;99.90;;;;;;5060692;28;20503;-45
2022/03/28 09:39:36;;;;;;;8.82;7.07;;;8.10;99.90;;;;;;5041881;28;20063;-46
2022/03/28 09:42:04;;;;;;;8.20;6.20;;;8.10;99.90;;;;;;5041414;28;20141;-44
2022/03/28 09:44:37;;;;;;;11.20;8.35;;;8.10;99.90;;;;;;5080397;28;20519;-43
2022/03/28 09:47:13;;;;;;;11.35;9.43;;;8.20;99.90;;;;;;5074115;28;20044;-44
2022/03/28 09:49:42;;;;;;;16.42;9.10;;;8.30;99.90;;;;;;5081563;28;20051;-44
2022/03/28 09:52:13;;;;;;;9.13;8.02;;;8.30;99.90;;;;;;5081618;28;20040;-44
2022/03/28 09:55:00;;;;;;;9.52;7.35;;;8.40;99.90;;;;;;5081318;28;20521;-45
2022/03/28 09:57:32;;;;;;;8.88;7.40;;;8.50;99.90;;;;;;5074451;28;20059;-46
2022/03/28 10:00:09;;;;;;;8.77;7.70;;;8.60;99.90;;;;;;5068585;28;20538;-44
2022/03/28 10:02:35;;;;;;;10.43;7.47;;;8.60;99.90;;;;;;5059110;28;20510;-44
2022/03/28 10:05:02;;;;;;;8.45;7.20;;;8.70;99.90;;;;;;5080400;28;20040;-44
2022/03/28 10:07:28;;;;;;;8.77;7.20;;;8.70;99.90;;;;;;5082041;28;20151;-46
2022/03/28 10:09:54;;;;;;;9.52;8.52;;;8.70;99.90;;;;;;5076850;28;20414;-45
2022/03/28 10:12:21;;;;;;;10.70;8.57;;;8.70;99.90;;;;;;5076240;28;20052;-46
2022/03/28 10:14:57;;;;;;;9.65;8.52;;;8.80;99.90;;;;;;5081720;28;20135;-46
2022/03/28 10:17:31;;;;;;;11.18;9.75;;;8.70;99.90;;;;;;5085003;28;20262;-46
2022/03/28 10:19:57;;;;;;;11.77;10.27;;;8.70;99.90;;;;;;5070822;28;20037;-45
2022/03/28 10:22:30;;;;;;;12.52;10.98;;;8.70;99.90;;;;;;5058750;28;20060;-49
2022/03/28 10:25:03;;;;;;;10.43;9.32;;;8.70;99.90;;;;;;5074827;28;20108;-45
2022/03/28 10:27:29;;;;;;;13.15;10.45;;;8.80;99.90;;;;;;5050602;28;20076;-48
2022/03/28 10:30:10;;;;;;;10.85;9.05;;;8.90;99.90;;;;;;5080788;28;20066;-45
2022/03/28 10:32:37;;;;;;;11.38;9.90;;;9.00;99.90;;;;;;5076795;28;20059;-45
2022/03/28 10:35:06;;;;;;;11.43;10.10;;;9.10;99.90;;;;;;5078985;28;20581;-44
2022/03/28 10:37:36;;;;;;;13.32;10.25;;;8.90;99.90;;;;;;5075918;28;20052;-45
2022/03/28 10:40:23;;;;;;;12.13;9.82;;;9.00;99.90;;;;;;5066154;28;20131;-45
2022/03/28 10:42:52;;;;;;;12.75;10.27;;;9.10;99.90;;;;;;5072674;28;20084;-45
2022/03/28 10:45:20;;;;;;;10.20;9.05;;;9.20;99.90;;;;;;5078640;28;20358;-44
2022/03/28 10:47:48;;;;;;;11.15;9.80;;;9.30;99.90;;;;;;5069752;28;20044;-45
2022/03/28 10:50:19;;;;;;;12.30;10.80;;;9.40;99.90;;;;;;5072164;28;20217;-46
2022/03/28 10:53:09;;;;;;;11.85;10.57;;;9.50;99.90;;;;;;5072987;28;20415;-45
2022/03/28 10:55:59;;;;;;;13.18;10.40;;;9.60;99.90;;;;;;5070615;28;20498;-45
2022/03/28 10:58:28;;;;;;;11.93;10.73;;;9.70;99.90;;;;;;5039180;28;20564;-44
2022/03/28 11:01:11;;;;;;;13.88;11.38;;;9.70;99.90;;;;;;5065494;28;20102;-43
2022/03/28 11:03:51;;;;;;;14.73;11.68;;;9.80;99.90;;;;;;5072826;28;20071;-45
2022/03/28 11:06:19;;;;;;;13.50;12.00;;;9.90;99.90;;;;;;5073743;28;20110;-46
2022/03/28 11:08:58;;;;;;;13.55;11.30;;;9.90;99.90;;;;;;5072453;28;20178;-45
2022/03/28 11:11:32;;;;;;;14.90;11.73;;;9.90;99.90;;;;;;5075006;28;20048;-45
2022/03/28 11:14:12;;;;;;;13.38;11.98;;;9.90;99.90;;;;;;5036911;28;20084;-44
2022/03/28 11:16:50;;;;;;;13.88;11.45;;;9.70;99.90;;;;;;5072322;28;20056;-46
2022/03/28 11:19:27;;;;;;;13.43;11.25;;;9.80;99.90;;;;;;5072168;28;20118;-45
2022/03/28 11:22:03;;;;;;;13.35;11.85;;;9.90;99.90;;;;;;5055998;28;20059;-45
2022/03/28 11:24:58;;;;;;;14.23;11.68;;;10.00;99.90;;;;;;5052736;28;20443;-45
2022/03/28 11:27:29;;;;;;;12.77;11.48;;;10.10;99.90;;;;;;5080349;28;20054;-44
2022/03/28 11:30:21;;;;;;;12.98;11.13;;;10.00;99.90;;;;;;5081364;28;20040;-45
2022/03/28 11:32:47;;;;;;;15.32;11.43;;;10.10;99.90;;;;;;5051284;28;20052;-47
2022/03/28 11:35:15;;;;;;;12.15;10.85;;;10.30;99.90;;;;;;5080506;28;20105;-47
2022/03/28 11:37:42;;;;;;;13.32;11.18;;;10.40;99.90;;;;;;5080650;28;20101;-47
2022/03/28 11:40:08;;;;;;;12.70;11.07;;;10.70;99.90;;;;;;5077487;28;20059;-45
2022/03/28 11:42:35;;;;;;;12.70;11.18;;;10.90;99.90;;;;;;5080371;28;20398;-46
2022/03/28 11:45:06;;;;;;;13.65;12.23;;;11.10;99.90;;;;;;5082582;28;20040;-47
2022/03/28 11:47:34;;;;;;;14.55;11.80;;;11.10;99.90;;;;;;5083210;28;20051;-45
2022/03/28 11:50:03;;;;;;;15.55;12.07;;;11.20;99.90;;;;;;5082007;28;20051;-45
2022/03/28 11:52:29;;;;;;;14.60;12.60;;;11.00;99.90;;;;;;5082806;28;20151;-48
2022/03/28 11:54:58;;;;;;;14.80;13.30;;;11.00;99.90;;;;;;5077438;28;20418;-43
2022/03/28 12:00:22;;;;;;;15.68;12.93;;;10.80;99.90;;;;;;5076373;28;20513;-44
2022/03/28 12:02:49;;;;;;;16.15;13.13;;;10.80;99.90;;;;;;5082212;28;20575;-44
2022/03/28 12:05:31;;;;;;;15.05;12.20;;;10.70;99.90;;;;;;5077709;28;20052;-46
2022/03/28 12:07:59;;;;;;;14.32;12.80;;;10.90;99.90;;;;;;5082930;28;20584;-43
2022/03/28 12:10:32;;;;;;;20.17;12.52;;;11.20;99.90;;;;;;5077685;28;20497;-45
2022/03/28 12:12:59;;;;;;;17.70;13.93;;;11.40;99.90;;;;;;5082649;28;20506;-45
2022/03/28 12:15:28;;;;;;;16.00;13.70;;;11.80;99.90;;;;;;5082012;28;20059;-45
2022/03/28 12:17:54;;;;;;;15.60;13.90;;;11.90;99.90;;;;;;5082828;28;20418;-45
2022/03/28 12:20:28;;;;;;;17.63;15.70;;;12.00;99.90;;;;;;5060543;28;20050;-43
2022/03/28 12:22:54;;;;;;;18.25;13.80;;;12.00;99.90;;;;;;5077279;28;20040;-43
2022/03/28 12:25:46;;;;;;;15.48;13.73;;;12.10;99.90;;;;;;5076783;28;20566;-45
2022/03/28 12:28:18;;;;;;;16.42;14.13;;;12.10;99.90;;;;;;5078400;28;20060;-44
2022/03/28 12:30:52;;;;;;;18.10;16.15;;;12.10;99.90;;;;;;5063919;28;20207;-45
2022/03/28 12:33:21;;;;;;;16.42;14.68;;;12.10;99.90;;;;;;5081770;28;20059;-45
2022/03/28 12:35:56;;;;;;;17.02;15.10;;;11.90;99.90;;;;;;5080578;28;20154;-44
2022/03/28 12:38:25;;;;;;;20.75;18.15;;;11.80;99.90;;;;;;5075071;28;20074;-44
2022/03/28 12:40:53;;;;;;;20.60;18.25;;;11.90;99.90;;;;;;5074310;28;20040;-47
2022/03/28 12:43:23;;;;;;;17.88;16.02;;;12.00;99.90;;;;;;5083163;28;20067;-45
2022/03/28 12:45:52;;;;;;;17.50;15.70;;;12.10;99.90;;;;;;5071009;28;20510;-44
2022/03/28 12:48:18;;;;;;;15.27;13.70;;;12.20;99.90;;;;;;5083139;28;20051;-49
2022/03/28 12:51:11;;;;;;;19.10;15.27;;;12.30;99.90;;;;;;5083547;28;20044;-46
2022/03/28 12:53:39;;;;;;;15.65;13.95;;;12.30;99.90;;;;;;5075833;28;20134;-45